createdAt,value
2022-09-07T00:00:49.801Z,90.01
2022-09-07T00:03:19.963Z,89.70
2022-09-07T00:05:50.770Z,90.10
2022-09-07T00:08:22.620Z,90.00
2022-09-07T00:10:55.902Z,90.37
2022-09-07T00:13:24.582Z,90.88
2022-09-07T00:15:52.802Z,90.79
2022-09-07T00:18:20.650Z,90.85
2022-09-07T00:20:59.028Z,91.30
2022-09-07T00:23:27.519Z,91.84
2022-09-07T00:25:55.279Z,91.77
2022-09-07T00:28:23.009Z,92.13
2022-09-07T00:30:50.705Z,92.08
2022-09-07T00:33:18.453Z,91.42
2022-09-07T00:35:46.402Z,90.18
2022-09-07T00:38:15.651Z,89.81
2022-09-07T00:40:44.529Z,89.56
2022-09-07T00:43:17.215Z,89.59
2022-09-07T00:45:44.874Z,89.72
2022-09-07T00:48:17.083Z,89.77
2022-09-07T00:50:48.898Z,89.27
2022-09-07T00:53:23.130Z,88.35
2022-09-07T00:55:53.176Z,87.18
2022-09-07T00:58:23.004Z,86.87
2022-09-07T01:00:51.931Z,87.58
2022-09-07T01:03:26.158Z,87.72
2022-09-07T01:06:00.251Z,87.76
2022-09-07T01:08:32.414Z,87.67
2022-09-07T01:11:01.394Z,88.16
2022-09-07T01:13:29.227Z,88.40
2022-09-07T01:16:06.526Z,88.87
2022-09-07T01:18:43.558Z,89.75
2022-09-07T01:21:22.830Z,88.87
2022-09-07T01:24:20.299Z,89.11
2022-09-07T01:27:18.712Z,89.82
2022-09-07T01:29:56.439Z,89.64
2022-09-07T01:32:33.169Z,89.91
2022-09-07T01:35:06.176Z,89.93
2022-09-07T01:37:44.003Z,89.60
2022-09-07T01:40:30.159Z,90.26
2022-09-07T01:43:04.744Z,89.98
2022-09-07T01:45:37.655Z,90.31
2022-09-07T01:48:08.329Z,91.29
2022-09-07T01:50:41.305Z,91.86
2022-09-07T01:53:15.463Z,91.49
2022-09-07T01:55:48.723Z,92.05
2022-09-07T01:58:21.797Z,89.72
2022-09-07T02:00:55.940Z,89.50
2022-09-07T02:03:32.418Z,89.81
2022-09-07T02:06:05.581Z,88.79
2022-09-07T02:08:41.220Z,88.34
2022-09-07T02:11:14.016Z,87.16
2022-09-07T02:13:49.489Z,86.28
2022-09-07T02:16:30.849Z,86.35
2022-09-07T02:19:04.758Z,87.86
2022-09-07T02:21:37.895Z,88.70
2022-09-07T02:24:10.587Z,90.03
2022-09-07T02:26:41.717Z,91.78
2022-09-07T02:29:09.822Z,91.38
2022-09-07T02:31:39.834Z,91.78
2022-09-07T02:34:07.991Z,94.67
2022-09-07T02:36:41.757Z,96.03
2022-09-07T02:39:09.381Z,96.21
2022-09-07T02:41:39.895Z,96.66
2022-09-07T02:44:11.682Z,96.46
2022-09-07T02:46:53.536Z,95.44
2022-09-07T02:49:34.268Z,94.61
2022-09-07T02:52:13.330Z,94.10
2022-09-07T02:54:51.176Z,94.49
2022-09-07T02:57:27.892Z,93.40
2022-09-07T03:00:07.472Z,93.63
2022-09-07T03:02:44.184Z,94.00
2022-09-07T03:05:21.449Z,95.10
2022-09-07T03:07:55.124Z,95.31
2022-09-07T03:10:24.302Z,96.16
2022-09-07T03:12:52.681Z,96.61
2022-09-07T03:15:23.006Z,97.03
2022-09-07T03:17:52.507Z,97.10
2022-09-07T03:20:21.154Z,96.71
2022-09-07T03:22:50.310Z,96.79
2022-09-07T03:25:23.156Z,96.02
2022-09-07T03:27:50.883Z,95.33
2022-09-07T03:30:18.586Z,96.02
2022-09-07T03:32:47.386Z,95.80
2022-09-07T03:35:16.681Z,95.62
2022-09-07T03:37:44.939Z,95.40
2022-09-07T03:40:15.278Z,95.72
2022-09-07T03:42:43.546Z,95.99
2022-09-07T03:45:12.166Z,96.10
2022-09-07T03:47:41.158Z,96.11
2022-09-07T03:50:09.362Z,96.49
2022-09-07T03:52:38.847Z,97.01
2022-09-07T03:55:07.623Z,97.22
2022-09-07T03:57:35.270Z,97.14
2022-09-07T04:00:03.612Z,96.96
2022-09-07T04:02:32.359Z,97.35
2022-09-07T04:05:00.144Z,97.57
2022-09-07T04:07:27.863Z,97.01
2022-09-07T04:09:57.511Z,97.63
2022-09-07T04:12:27.294Z,97.29
2022-09-07T04:14:58.637Z,98.26
2022-09-07T04:17:26.286Z,98.13
2022-09-07T04:19:54.507Z,97.64
2022-09-07T04:22:22.121Z,97.37
2022-09-07T04:24:49.842Z,96.45
2022-09-07T04:27:18.813Z,96.52
2022-09-07T04:29:48.240Z,96.70
2022-09-07T04:32:18.175Z,96.79
2022-09-07T04:34:45.820Z,96.06
2022-09-07T04:37:13.857Z,96.37
2022-09-07T04:39:41.602Z,96.52
2022-09-07T04:42:09.456Z,96.65
2022-09-07T04:44:38.489Z,96.76
2022-09-07T04:47:06.294Z,96.78
2022-09-07T04:49:33.926Z,97.08
2022-09-07T04:52:01.679Z,96.75
2022-09-07T04:54:29.617Z,97.16
2022-09-07T04:56:57.299Z,97.30
2022-09-07T04:59:27.364Z,97.79
2022-09-07T05:01:56.414Z,98.03
2022-09-07T05:04:24.266Z,98.07
2022-09-07T05:06:53.760Z,97.98
2022-09-07T05:09:21.597Z,97.78
2022-09-07T05:11:51.613Z,97.38
2022-09-07T05:14:19.347Z,96.76
2022-09-07T05:16:47.274Z,95.74
2022-09-07T05:19:16.400Z,95.29
2022-09-07T05:21:44.068Z,94.84
2022-09-07T05:24:11.865Z,93.58
2022-09-07T05:26:39.681Z,92.73
2022-09-07T05:31:55.717Z,89.69
2022-09-07T05:34:29.567Z,88.51
2022-09-07T05:36:59.690Z,87.83
2022-09-07T05:39:30.048Z,88.66
2022-09-07T05:41:57.894Z,88.52
2022-09-07T05:47:13.672Z,87.91
2022-09-07T05:49:42.726Z,87.26
2022-09-07T05:52:12.679Z,85.83
2022-09-07T05:54:40.541Z,84.23
2022-09-07T05:57:12.306Z,84.39
2022-09-07T05:59:40.255Z,84.22
2022-09-07T06:02:08.712Z,85.00
2022-09-07T06:04:37.761Z,80.18
2022-09-07T06:07:23.213Z,74.29
2022-09-07T06:12:44.396Z,60.92
2022-09-07T06:15:16.127Z,58.85
2022-09-07T06:17:43.741Z,55.15
2022-09-07T06:20:12.324Z,53.05
2022-09-07T06:22:43.773Z,51.12
2022-09-07T06:25:11.418Z,50.24
2022-09-07T06:27:39.042Z,50.26
2022-09-07T06:30:07.750Z,49.34
2022-09-07T06:32:45.080Z,49.24
2022-09-07T06:35:13.915Z,49.38
2022-09-07T06:37:43.415Z,48.40
2022-09-07T06:40:12.163Z,48.52
2022-09-07T06:42:40.824Z,47.87
2022-09-07T06:45:11.084Z,47.98
2022-09-07T06:47:39.116Z,49.08
2022-09-07T06:50:07.437Z,47.32
2022-09-07T06:55:27.618Z,47.89
2022-09-07T06:57:55.388Z,49.60
2022-09-07T07:00:23.128Z,48.26
2022-09-07T07:02:50.844Z,47.04
2022-09-07T07:05:18.676Z,46.14
2022-09-07T07:07:46.568Z,45.74
2022-09-07T07:10:14.409Z,47.19
2022-09-07T07:12:53.060Z,47.72
2022-09-07T07:15:20.984Z,49.55
2022-09-07T07:17:56.122Z,49.89
2022-09-07T07:20:26.965Z,51.07
2022-09-07T07:22:55.157Z,50.73
2022-09-07T07:25:22.870Z,51.70
2022-09-07T07:27:52.082Z,51.27
2022-09-07T07:30:21.934Z,50.14
2022-09-07T07:32:49.645Z,48.56
2022-09-07T07:35:17.577Z,47.40
2022-09-07T07:37:48.066Z,46.93
2022-09-07T07:40:17.852Z,46.24
2022-09-07T07:42:48.605Z,47.54
2022-09-07T07:48:06.549Z,49.11
2022-09-07T07:50:34.640Z,49.05
2022-09-07T07:55:50.225Z,48.94
2022-09-07T07:58:20.552Z,46.60
2022-09-07T08:00:54.729Z,45.65
2022-09-07T08:03:23.937Z,45.42
2022-09-07T08:05:52.041Z,43.96
2022-09-07T08:08:20.521Z,43.63
2022-09-07T08:10:48.319Z,44.59
2022-09-07T08:13:16.293Z,45.23
2022-09-07T08:15:46.276Z,48.15
2022-09-07T08:18:17.463Z,48.51
2022-09-07T08:20:48.194Z,51.42
2022-09-07T08:23:16.155Z,54.95
2022-09-07T08:25:51.528Z,57.69
2022-09-07T08:28:19.499Z,59.46
2022-09-07T08:30:47.094Z,61.96
2022-09-07T08:33:16.555Z,62.93
2022-09-07T08:35:44.277Z,61.25
2022-09-07T08:38:12.158Z,61.57
2022-09-07T08:40:54.949Z,62.47
2022-09-07T08:43:39.761Z,63.96
2022-09-07T08:46:21.157Z,62.44
2022-09-07T08:48:55.717Z,63.87
2022-09-07T08:51:33.004Z,62.38
2022-09-07T08:54:01.650Z,61.42
2022-09-07T08:56:33.951Z,60.74
2022-09-07T08:59:05.488Z,59.27
2022-09-07T09:01:37.601Z,56.63
2022-09-07T09:04:16.651Z,56.08
2022-09-07T09:07:00.026Z,56.92
2022-09-07T09:09:39.613Z,59.15
2022-09-07T09:12:17.282Z,60.49
2022-09-07T09:14:58.828Z,60.77
2022-09-07T09:17:32.836Z,61.08
2022-09-07T09:20:11.177Z,59.01
2022-09-07T09:22:38.767Z,59.27
2022-09-07T09:25:18.884Z,58.25
2022-09-07T09:27:46.760Z,56.71
2022-09-07T09:30:16.508Z,56.50
2022-09-07T09:32:46.087Z,57.04
2022-09-07T09:35:20.604Z,58.42
2022-09-07T09:37:48.525Z,58.75
2022-09-07T09:40:25.079Z,59.47
2022-09-07T09:43:02.165Z,61.28
2022-09-07T09:46:12.064Z,62.23
2022-09-07T09:48:22.579Z,62.56
2022-09-07T09:53:57.112Z,62.06
2022-09-07T09:56:37.980Z,61.74
2022-09-07T10:05:28.289Z,60.87
2022-09-07T10:07:57.791Z,61.69
2022-09-07T10:10:27.605Z,60.72
2022-09-07T10:12:56.440Z,60.71
2022-09-07T10:15:39.691Z,61.05
2022-09-07T10:18:18.642Z,61.06
2022-09-07T10:20:46.679Z,59.41
2022-09-07T10:23:23.494Z,59.74
2022-09-07T10:25:51.152Z,58.70
2022-09-07T10:28:21.208Z,58.29
2022-09-07T10:31:10.000Z,56.62
2022-09-07T10:36:47.334Z,57.84
2022-09-07T10:39:22.177Z,57.07
2022-09-07T10:42:02.328Z,56.39
2022-09-07T10:44:43.191Z,56.75
2022-09-07T10:47:20.500Z,57.89
2022-09-07T10:52:47.675Z,55.75
2022-09-07T10:55:26.042Z,56.07
2022-09-07T10:58:06.370Z,55.78
2022-09-07T11:00:42.104Z,56.53
2022-09-07T11:03:26.303Z,56.74
2022-09-07T11:06:16.192Z,56.89
2022-09-07T11:09:16.906Z,57.28
2022-09-07T11:12:07.244Z,57.94
2022-09-07T11:14:42.242Z,57.35
2022-09-07T11:17:16.046Z,57.63
2022-09-07T11:19:51.693Z,56.66
2022-09-07T11:22:29.387Z,56.11
2022-09-07T11:27:59.958Z,55.51
2022-09-07T11:30:31.211Z,54.63
2022-09-07T11:33:06.145Z,54.59
2022-09-07T11:35:45.827Z,53.02
2022-09-07T11:38:26.391Z,53.70
2022-09-07T11:41:01.789Z,53.76
2022-09-07T11:43:33.131Z,53.15
2022-09-07T11:46:06.476Z,51.83
2022-09-07T11:48:39.236Z,51.59
2022-09-07T11:51:15.229Z,51.60
2022-09-07T11:53:46.996Z,50.40
2022-09-07T11:56:19.359Z,50.91
2022-09-07T11:59:12.647Z,51.95
2022-09-07T12:01:48.841Z,50.16
2022-09-07T12:04:41.383Z,50.50
2022-09-07T12:07:50.904Z,50.69
2022-09-07T12:10:37.790Z,50.62
2022-09-07T12:13:35.520Z,49.63
2022-09-07T12:16:09.708Z,48.00
2022-09-07T12:19:01.074Z,47.96
2022-09-07T12:21:37.633Z,48.04
2022-09-07T12:24:05.421Z,48.71
2022-09-07T12:26:51.472Z,48.13
2022-09-07T12:29:23.129Z,48.50
2022-09-07T12:31:59.346Z,47.84
2022-09-07T12:34:57.832Z,46.89
2022-09-07T12:37:42.454Z,45.96
2022-09-07T12:40:48.046Z,46.00
2022-09-07T12:43:47.917Z,45.35
2022-09-07T12:46:21.280Z,47.17
2022-09-07T12:48:58.911Z,47.19
2022-09-07T12:54:31.465Z,46.37
2022-09-07T13:00:06.745Z,44.75
2022-09-07T13:03:49.430Z,44.20
2022-09-07T13:06:03.546Z,46.00
2022-09-07T13:08:50.776Z,45.57
2022-09-07T13:11:32.544Z,45.37
2022-09-07T13:14:04.417Z,45.58
2022-09-07T13:19:57.732Z,45.80
2022-09-07T13:22:57.536Z,47.31
2022-09-07T13:25:47.426Z,49.84
2022-09-07T13:28:26.257Z,52.11
2022-09-07T13:31:06.851Z,53.52
2022-09-07T13:33:53.163Z,56.40
2022-09-07T13:36:42.002Z,57.28
2022-09-07T13:39:15.099Z,58.45
2022-09-07T13:41:48.166Z,57.98
2022-09-07T13:44:25.939Z,57.37
2022-09-07T13:47:16.761Z,56.97
2022-09-07T13:49:56.038Z,56.14
2022-09-07T13:52:31.552Z,56.15
2022-09-07T13:55:11.753Z,55.05
2022-09-07T13:57:50.706Z,54.57
2022-09-07T14:00:19.365Z,53.72
2022-09-07T14:02:55.970Z,52.30
2022-09-07T14:05:25.276Z,51.38
2022-09-07T14:07:52.856Z,50.92
2022-09-07T14:10:24.886Z,49.36
2022-09-07T14:12:54.829Z,48.25
2022-09-07T14:15:28.390Z,48.00
2022-09-07T14:18:04.271Z,46.37
2022-09-07T14:20:33.390Z,47.52
2022-09-07T14:23:01.257Z,48.47
2022-09-07T14:26:16.104Z,48.85
2022-09-07T14:28:32.731Z,49.40
2022-09-07T14:31:01.074Z,48.61
2022-09-07T14:33:30.275Z,48.83
2022-09-07T14:35:59.304Z,49.20
2022-09-07T14:41:20.282Z,47.51
2022-09-07T14:43:55.897Z,46.64
2022-09-07T14:46:25.880Z,46.71
2022-09-07T14:48:55.578Z,46.76
2022-09-07T14:51:35.133Z,46.50
2022-09-07T14:54:05.874Z,46.23
2022-09-07T14:56:37.059Z,46.15
2022-09-07T14:59:35.538Z,46.08
2022-09-07T15:02:26.294Z,45.92
2022-09-07T15:05:28.331Z,47.13
2022-09-07T15:07:58.896Z,46.81
2022-09-07T15:10:35.174Z,46.38
2022-09-07T15:13:07.291Z,47.29
2022-09-07T15:15:37.301Z,47.61
2022-09-07T15:18:26.069Z,48.18
2022-09-07T15:20:56.451Z,48.14
2022-09-07T15:23:24.611Z,48.79
2022-09-07T15:25:54.150Z,48.47
2022-09-07T15:31:56.771Z,48.99
2022-09-07T15:34:19.868Z,48.89
2022-09-07T15:36:49.763Z,48.89
2022-09-07T15:39:21.220Z,48.70
2022-09-07T15:41:49.604Z,49.30
2022-09-07T15:44:24.383Z,48.96
2022-09-07T15:49:44.716Z,48.51
2022-09-07T15:52:17.525Z,48.50
2022-09-07T15:54:45.858Z,48.59
2022-09-07T16:00:03.015Z,49.21
2022-09-07T16:05:20.199Z,48.65
2022-09-07T16:10:36.054Z,48.70
2022-09-07T16:13:10.506Z,48.29
2022-09-07T16:15:45.854Z,47.98
2022-09-07T16:18:16.563Z,48.32
2022-09-07T16:20:46.234Z,49.32
2022-09-07T16:23:16.152Z,50.26
2022-09-07T16:25:55.083Z,50.35
2022-09-07T16:28:22.728Z,49.99
2022-09-07T16:30:51.854Z,50.64
2022-09-07T16:33:19.600Z,50.61
2022-09-07T16:35:59.602Z,50.47
2022-09-07T16:38:44.793Z,51.50
2022-09-07T16:41:14.740Z,51.04
2022-09-07T16:43:42.653Z,51.81
2022-09-07T16:46:15.250Z,52.10
2022-09-07T16:48:44.287Z,52.43
2022-09-07T16:51:13.853Z,52.77
2022-09-07T16:53:41.922Z,54.14
2022-09-07T16:56:11.415Z,54.44
2022-09-07T16:58:41.368Z,53.76
2022-09-07T17:01:13.631Z,54.52
2022-09-07T17:03:42.266Z,55.49
2022-09-07T17:06:13.679Z,56.24
2022-09-07T17:08:42.235Z,56.03
2022-09-07T17:11:11.948Z,55.98
2022-09-07T17:13:41.337Z,55.14
2022-09-07T17:16:13.330Z,55.19
2022-09-07T17:21:31.236Z,53.47
2022-09-07T17:24:01.461Z,53.34
2022-09-07T17:26:29.769Z,52.85
2022-09-07T17:29:01.635Z,53.25
2022-09-07T17:34:21.787Z,54.30
2022-09-07T17:36:49.415Z,54.82
2022-09-07T17:39:18.777Z,54.26
2022-09-07T17:41:47.315Z,54.53
2022-09-07T17:44:16.711Z,55.47
2022-09-07T17:46:45.712Z,55.53
2022-09-07T17:49:16.310Z,55.72
2022-09-07T17:51:44.691Z,54.70
2022-09-07T17:54:14.628Z,55.23
2022-09-07T17:56:43.035Z,55.74
2022-09-07T18:02:00.907Z,56.05
2022-09-07T18:04:28.897Z,55.50
2022-09-07T18:06:56.596Z,55.24
2022-09-07T18:09:24.247Z,55.59
2022-09-07T18:11:51.836Z,55.63
2022-09-07T18:14:20.322Z,56.26
2022-09-07T18:16:50.270Z,56.35
2022-09-07T18:19:19.790Z,56.25
2022-09-07T18:21:48.618Z,55.56
2022-09-07T18:24:18.251Z,55.40
2022-09-07T18:26:50.996Z,55.10
2022-09-07T18:29:28.616Z,54.74
2022-09-07T18:31:58.305Z,54.78
2022-09-07T18:34:28.458Z,54.86
2022-09-07T18:36:57.144Z,55.28
2022-09-07T18:39:24.823Z,56.11
2022-09-07T18:41:53.302Z,56.18
2022-09-07T18:47:16.094Z,56.62
2022-09-07T18:49:49.936Z,56.64
2022-09-07T18:55:07.884Z,57.29
2022-09-07T18:57:36.501Z,57.31
2022-09-07T19:00:05.910Z,56.94
2022-09-07T19:02:34.222Z,56.83
2022-09-07T19:07:51.046Z,56.71
2022-09-07T19:10:18.996Z,55.80
2022-09-07T19:12:46.579Z,55.46
2022-09-07T19:15:15.951Z,55.13
2022-09-07T19:17:43.852Z,54.87
2022-09-07T19:20:13.009Z,54.77
2022-09-07T19:22:42.681Z,55.25
2022-09-07T19:25:11.220Z,55.40
2022-09-07T19:27:38.796Z,55.18
2022-09-07T19:30:07.175Z,55.13
2022-09-07T19:32:34.814Z,55.23
2022-09-07T19:35:02.443Z,55.51
2022-09-07T19:37:32.671Z,55.38
2022-09-07T19:40:01.267Z,55.55
2022-09-07T19:42:29.537Z,55.56
2022-09-07T19:44:57.163Z,56.49
2022-09-07T19:47:24.803Z,57.80
2022-09-07T19:49:52.707Z,58.53
2022-09-07T19:52:20.431Z,60.24
2022-09-07T19:54:49.452Z,60.44
2022-09-07T19:57:17.026Z,61.36
2022-09-07T19:59:45.551Z,61.96
2022-09-07T20:02:13.329Z,62.59
2022-09-07T20:04:40.881Z,62.67
2022-09-07T20:07:08.413Z,63.29
2022-09-07T20:09:36.595Z,63.94
2022-09-07T20:12:08.280Z,63.76
2022-09-07T20:14:35.879Z,63.71
2022-09-07T20:17:03.877Z,63.68
2022-09-07T20:19:31.383Z,63.91
2022-09-07T20:21:58.930Z,63.92
2022-09-07T20:24:26.690Z,63.32
2022-09-07T20:26:54.358Z,63.60
2022-09-07T20:29:27.879Z,63.76
2022-09-07T20:31:56.117Z,64.34
2022-09-07T20:34:23.696Z,64.67
2022-09-07T20:36:51.719Z,64.55
2022-09-07T20:39:20.255Z,64.41
2022-09-07T20:41:48.477Z,64.27
2022-09-07T20:44:16.490Z,64.53
2022-09-07T20:46:45.546Z,65.35
2022-09-07T20:49:13.221Z,65.75
2022-09-07T20:51:41.101Z,65.75
2022-09-07T20:54:08.837Z,65.86
2022-09-07T20:56:36.420Z,65.23
2022-09-07T20:59:05.200Z,65.74
2022-09-07T21:01:34.905Z,66.78
2022-09-07T21:04:05.955Z,67.12
2022-09-07T21:06:33.841Z,66.77
2022-09-07T21:09:01.582Z,67.10
2022-09-07T21:11:31.075Z,66.60
2022-09-07T21:14:00.477Z,66.35
2022-09-07T21:16:29.137Z,66.16
2022-09-07T21:18:59.280Z,65.58
2022-09-07T21:21:29.603Z,65.73
2022-09-07T21:23:59.161Z,65.67
2022-09-07T21:26:27.655Z,66.40
2022-09-07T21:28:57.304Z,65.93
2022-09-07T21:31:25.149Z,66.21
2022-09-07T21:33:55.344Z,66.15
2022-09-07T21:36:23.184Z,66.43
2022-09-07T21:38:52.301Z,67.57
2022-09-07T21:41:21.605Z,68.08
2022-09-07T21:43:49.266Z,67.66
2022-09-07T21:46:18.492Z,67.82
2022-09-07T21:48:46.898Z,68.65
2022-09-07T21:51:15.331Z,68.35
2022-09-07T21:53:43.739Z,69.79
2022-09-07T21:56:14.579Z,69.82
2022-09-07T21:58:43.633Z,70.29
2022-09-07T22:01:19.315Z,71.13
2022-09-07T22:03:48.572Z,70.87
2022-09-07T22:06:16.155Z,71.54
2022-09-07T22:08:44.898Z,72.28
2022-09-07T22:11:16.102Z,72.11
2022-09-07T22:13:44.178Z,72.04
2022-09-07T22:16:13.028Z,72.37
2022-09-07T22:18:43.885Z,72.62
2022-09-07T22:21:13.856Z,72.96
2022-09-07T22:23:43.892Z,73.00
2022-09-07T22:26:11.514Z,73.38
2022-09-07T22:28:40.696Z,73.51
2022-09-07T22:31:09.811Z,73.61
2022-09-07T22:33:37.477Z,74.03
2022-09-07T22:36:13.046Z,74.90
2022-09-07T22:38:40.862Z,74.53
2022-09-07T22:41:10.455Z,75.07
2022-09-07T22:43:39.784Z,74.82
2022-09-07T22:46:07.646Z,75.27
2022-09-07T22:48:35.302Z,75.31
2022-09-07T22:51:03.619Z,74.88
2022-09-07T22:53:33.303Z,74.12
2022-09-07T22:56:05.742Z,74.35
2022-09-07T22:58:33.295Z,74.95
2022-09-07T23:01:02.522Z,74.70
2022-09-07T23:03:36.030Z,75.90
2022-09-07T23:06:04.634Z,76.64
2022-09-07T23:08:32.565Z,77.03
2022-09-07T23:11:05.120Z,76.57
2022-09-07T23:13:33.765Z,76.60
2022-09-07T23:16:07.145Z,76.48
2022-09-07T23:18:36.078Z,75.89
2022-09-07T23:21:03.827Z,75.76
2022-09-07T23:23:31.685Z,75.79
2022-09-07T23:26:01.807Z,75.76
2022-09-07T23:28:29.921Z,76.69
2022-09-07T23:30:58.360Z,76.38
2022-09-07T23:33:28.095Z,77.11
2022-09-07T23:35:56.701Z,77.01
2022-09-07T23:38:24.884Z,77.87
2022-09-07T23:40:52.909Z,76.70
2022-09-07T23:43:20.594Z,76.10
2022-09-07T23:45:48.390Z,75.30
2022-09-07T23:48:16.319Z,75.66
2022-09-07T23:50:45.951Z,75.63
2022-09-07T23:53:14.157Z,76.16
2022-09-07T23:55:42.796Z,76.20
2022-09-07T23:58:10.728Z,75.58
